createdAt,value
2022-11-14T00:02:41.405Z,76.21
2022-11-14T00:05:49.568Z,76.19
2022-11-14T00:08:54.480Z,76.34
2022-11-14T00:12:01.019Z,76.21
2022-11-14T00:15:07.699Z,76.19
2022-11-14T00:18:11.633Z,76.21
2022-11-14T00:21:18.201Z,76.25
2022-11-14T00:24:21.512Z,76.26
2022-11-14T00:27:24.673Z,76.21
2022-11-14T00:30:28.597Z,76.29
2022-11-14T00:33:34.100Z,76.41
2022-11-14T00:36:39.919Z,76.44
2022-11-14T00:39:45.929Z,76.37
2022-11-14T00:42:55.484Z,76.46
2022-11-14T00:45:59.028Z,76.30
2022-11-14T00:49:02.022Z,76.72
2022-11-14T00:52:05.188Z,76.72
2022-11-14T00:55:08.722Z,76.54
2022-11-14T00:58:11.711Z,76.70
2022-11-14T01:01:14.962Z,76.44
2022-11-14T01:04:18.228Z,76.46
2022-11-14T01:07:24.691Z,76.57
2022-11-14T01:10:30.192Z,76.54
2022-11-14T01:13:37.555Z,76.47
2022-11-14T01:16:40.489Z,76.38
2022-11-14T01:19:44.637Z,76.72
2022-11-14T01:22:50.628Z,76.62
2022-11-14T01:26:02.219Z,76.62
2022-11-14T01:29:05.967Z,76.81
2022-11-14T01:32:11.900Z,76.68
2022-11-14T01:35:15.247Z,76.69
2022-11-14T01:38:18.537Z,76.88
2022-11-14T01:41:22.420Z,76.54
2022-11-14T01:44:44.191Z,76.57
2022-11-14T01:47:54.031Z,76.71
2022-11-14T01:51:45.231Z,76.67
2022-11-14T01:54:58.157Z,76.65
2022-11-14T01:58:07.597Z,76.71
2022-11-14T02:01:11.408Z,76.59
2022-11-14T02:04:20.213Z,76.68
2022-11-14T02:07:25.930Z,76.90
2022-11-14T02:10:28.799Z,76.82
2022-11-14T02:13:31.718Z,76.80
2022-11-14T02:17:14.346Z,76.66
2022-11-14T02:20:14.081Z,76.79
2022-11-14T02:23:27.115Z,76.93
2022-11-14T02:26:34.308Z,76.90
2022-11-14T02:29:41.052Z,76.95
2022-11-14T02:36:09.836Z,76.83
2022-11-14T02:39:12.890Z,76.93
2022-11-14T02:42:15.768Z,76.81
2022-11-14T02:45:20.987Z,76.77
2022-11-14T02:48:23.966Z,76.55
2022-11-14T02:51:26.828Z,76.52
2022-11-14T02:54:29.773Z,76.49
2022-11-14T02:57:32.640Z,76.43
2022-11-14T03:00:38.462Z,76.46
2022-11-14T03:03:46.841Z,76.50
2022-11-14T03:06:51.797Z,76.45
2022-11-14T03:09:54.663Z,76.53
2022-11-14T03:12:58.282Z,76.63
2022-11-14T03:16:14.615Z,76.59
2022-11-14T03:19:18.262Z,76.98
2022-11-14T03:22:21.401Z,76.82
2022-11-14T03:25:24.332Z,76.87
2022-11-14T03:28:28.464Z,76.73
2022-11-14T03:31:31.511Z,76.93
2022-11-14T03:34:34.517Z,76.80
2022-11-14T03:37:37.330Z,76.92
2022-11-14T03:40:40.983Z,77.00
2022-11-14T03:43:43.820Z,76.93
2022-11-14T03:46:46.643Z,76.80
2022-11-14T03:49:49.608Z,76.76
2022-11-14T03:52:52.434Z,76.73
2022-11-14T03:55:55.420Z,76.88
2022-11-14T03:58:58.311Z,76.67
2022-11-14T04:02:01.221Z,76.86
2022-11-14T04:05:04.395Z,76.94
2022-11-14T04:08:07.558Z,76.83
2022-11-14T04:11:10.357Z,77.07
2022-11-14T04:14:13.187Z,77.05
2022-11-14T04:17:15.999Z,77.00
2022-11-14T04:20:19.031Z,77.13
2022-11-14T04:23:21.950Z,77.13
2022-11-14T04:26:24.941Z,77.30
2022-11-14T04:29:27.805Z,77.19
2022-11-14T04:32:30.612Z,77.29
2022-11-14T04:35:33.427Z,77.07
2022-11-14T04:38:36.797Z,77.21
2022-11-14T04:41:39.597Z,77.39
2022-11-14T04:44:42.519Z,77.37
2022-11-14T04:48:13.962Z,77.25
2022-11-14T04:51:17.085Z,77.33
2022-11-14T04:54:19.911Z,77.08
2022-11-14T04:57:22.825Z,77.27
2022-11-14T05:00:26.436Z,77.14
2022-11-14T05:03:29.434Z,77.35
2022-11-14T05:06:32.540Z,77.21
2022-11-14T05:09:36.904Z,77.27
2022-11-14T05:12:39.707Z,77.48
2022-11-14T05:15:42.559Z,77.41
2022-11-14T05:18:47.149Z,77.32
2022-11-14T05:21:50.698Z,77.44
2022-11-14T05:24:59.840Z,77.68
2022-11-14T05:28:02.739Z,77.32
2022-11-14T05:31:12.717Z,77.29
2022-11-14T05:34:15.541Z,77.38
2022-11-14T05:37:18.346Z,77.49
2022-11-14T05:40:21.445Z,77.57
2022-11-14T05:43:24.895Z,77.39
2022-11-14T05:47:08.756Z,77.37
2022-11-14T05:50:11.835Z,77.45
2022-11-14T05:53:14.825Z,77.68
2022-11-14T05:56:17.732Z,77.72
2022-11-14T05:59:20.621Z,77.92
2022-11-14T06:02:23.636Z,77.58
2022-11-14T06:05:26.606Z,77.86
2022-11-14T06:08:31.201Z,77.70
2022-11-14T06:11:34.453Z,77.58
2022-11-14T06:14:37.309Z,77.69
2022-11-14T06:17:40.946Z,77.88
2022-11-14T06:20:43.882Z,77.92
2022-11-14T06:23:47.992Z,77.87
2022-11-14T06:26:50.928Z,77.95
2022-11-14T06:29:54.045Z,77.95
2022-11-14T06:32:59.382Z,78.32
2022-11-14T06:36:05.174Z,78.29
2022-11-14T06:39:14.318Z,78.15
2022-11-14T06:42:20.927Z,78.05
2022-11-14T06:45:23.905Z,77.99
2022-11-14T06:48:26.911Z,77.92
2022-11-14T06:51:30.103Z,77.81
2022-11-14T06:54:32.991Z,77.70
2022-11-14T06:57:38.874Z,77.85
2022-11-14T07:00:41.767Z,77.80
2022-11-14T07:03:47.771Z,78.06
2022-11-14T07:06:51.365Z,78.01
2022-11-14T07:09:56.713Z,77.86
2022-11-14T07:12:59.541Z,77.93
2022-11-14T07:16:03.399Z,77.93
2022-11-14T07:19:09.888Z,77.84
2022-11-14T07:22:16.039Z,77.78
2022-11-14T07:25:18.935Z,77.76
2022-11-14T07:28:21.782Z,77.75
2022-11-14T07:31:24.751Z,77.65
2022-11-14T07:34:27.645Z,77.59
2022-11-14T07:37:31.546Z,77.62
2022-11-14T07:40:34.507Z,77.33
2022-11-14T07:43:38.764Z,77.30
2022-11-14T07:46:41.637Z,77.32
2022-11-14T07:49:44.454Z,77.27
2022-11-14T07:52:55.253Z,77.43
2022-11-14T07:56:03.369Z,77.40
2022-11-14T07:59:06.279Z,77.37
2022-11-14T08:02:14.596Z,77.50
2022-11-14T08:05:19.006Z,77.48
2022-11-14T08:08:22.765Z,77.57
2022-11-14T08:11:44.580Z,77.41
2022-11-14T08:14:47.478Z,77.71
2022-11-14T08:17:50.556Z,77.57
2022-11-14T08:20:54.503Z,77.56
2022-11-14T08:23:57.343Z,77.38
2022-11-14T08:27:00.105Z,77.68
2022-11-14T08:30:03.177Z,77.74
2022-11-14T08:33:07.403Z,77.66
2022-11-14T08:36:11.417Z,77.80
2022-11-14T08:39:14.274Z,77.54
2022-11-14T08:42:17.387Z,77.39
2022-11-14T08:45:20.245Z,77.21
2022-11-14T08:48:23.036Z,77.17
2022-11-14T08:51:26.026Z,77.26
2022-11-14T08:54:29.415Z,77.09
2022-11-14T08:57:32.249Z,76.95
2022-11-14T09:00:35.072Z,76.82
2022-11-14T09:03:38.003Z,76.98
2022-11-14T09:06:40.951Z,76.79
2022-11-14T09:09:43.783Z,76.62
2022-11-14T09:12:46.616Z,76.38
2022-11-14T09:15:49.424Z,76.28
2022-11-14T09:18:53.094Z,76.16
2022-11-14T09:21:55.957Z,75.98
2022-11-14T09:24:58.851Z,75.85
2022-11-14T09:28:06.628Z,75.61
2022-11-14T09:31:11.632Z,75.52
2022-11-14T09:34:14.955Z,75.76
2022-11-14T09:37:17.826Z,75.47
2022-11-14T09:40:20.800Z,75.20
2022-11-14T09:43:23.579Z,75.29
2022-11-14T09:46:33.368Z,75.00
2022-11-14T09:49:39.999Z,74.95
2022-11-14T09:52:52.691Z,74.78
2022-11-14T09:55:55.752Z,74.52
2022-11-14T09:58:58.607Z,74.41
2022-11-14T10:02:23.843Z,74.38
2022-11-14T10:05:48.041Z,74.41
2022-11-14T10:09:30.982Z,74.04
2022-11-14T10:12:48.727Z,74.12
2022-11-14T10:16:00.964Z,73.95
2022-11-14T10:19:16.249Z,73.69
2022-11-14T10:22:40.832Z,73.80
2022-11-14T10:25:59.076Z,73.23
2022-11-14T10:29:29.920Z,73.34
2022-11-14T10:32:44.965Z,73.37
2022-11-14T10:36:06.776Z,73.41
2022-11-14T10:39:23.362Z,73.22
2022-11-14T10:42:34.564Z,72.80
2022-11-14T10:45:44.497Z,72.60
2022-11-14T10:48:50.883Z,71.94
2022-11-14T10:51:57.761Z,72.08
2022-11-14T10:55:07.271Z,71.88
2022-11-14T10:58:12.659Z,71.71
2022-11-14T11:01:45.552Z,71.59
2022-11-14T11:04:49.348Z,71.67
2022-11-14T11:08:36.174Z,71.23
2022-11-14T11:11:39.609Z,71.46
2022-11-14T11:14:43.859Z,71.12
2022-11-14T11:18:05.378Z,71.16
2022-11-14T11:21:12.356Z,71.19
2022-11-14T11:24:34.703Z,70.74
2022-11-14T11:27:37.741Z,69.95
2022-11-14T11:30:54.620Z,69.73
2022-11-14T11:34:08.364Z,70.40
2022-11-14T11:37:20.553Z,70.37
2022-11-14T11:40:28.768Z,70.74
2022-11-14T11:43:42.877Z,70.59
2022-11-14T11:47:01.105Z,70.36
2022-11-14T11:50:05.066Z,70.42
2022-11-14T11:53:29.837Z,69.85
2022-11-14T11:56:34.027Z,69.52
2022-11-14T11:59:43.431Z,68.69
2022-11-14T12:02:50.505Z,68.82
2022-11-14T12:06:12.637Z,69.09
2022-11-14T12:09:29.487Z,69.17
2022-11-14T12:12:53.387Z,69.20
2022-11-14T12:15:59.315Z,68.19
2022-11-14T12:19:08.345Z,68.39
2022-11-14T12:22:23.506Z,68.00
2022-11-14T12:26:04.905Z,68.24
2022-11-14T12:29:22.540Z,68.31
2022-11-14T12:32:38.489Z,68.44
2022-11-14T12:35:52.004Z,68.93
2022-11-14T12:38:56.077Z,68.10
2022-11-14T12:42:08.004Z,67.62
2022-11-14T12:45:35.972Z,68.08
2022-11-14T12:48:44.110Z,67.22
2022-11-14T12:51:46.917Z,67.15
2022-11-14T12:54:52.209Z,66.82
2022-11-14T12:58:04.213Z,67.04
2022-11-14T13:01:56.504Z,67.23
2022-11-14T13:05:20.723Z,67.87
2022-11-14T13:08:42.349Z,66.98
2022-11-14T13:12:05.735Z,66.35
2022-11-14T13:15:48.623Z,67.00
2022-11-14T13:19:29.628Z,67.72
2022-11-14T13:22:40.327Z,67.50
2022-11-14T13:25:43.639Z,68.01
2022-11-14T13:28:50.175Z,68.18
2022-11-14T13:31:53.062Z,68.65
2022-11-14T13:35:38.282Z,68.92
2022-11-14T13:39:11.929Z,68.83
2022-11-14T13:42:44.122Z,68.78
2022-11-14T13:46:14.810Z,69.03
2022-11-14T13:49:41.811Z,69.15
2022-11-14T13:52:49.199Z,69.26
2022-11-14T13:56:08.879Z,69.35
2022-11-14T13:59:33.340Z,69.53
2022-11-14T14:02:45.617Z,69.67
2022-11-14T14:06:08.103Z,69.80
2022-11-14T14:09:30.076Z,69.72
2022-11-14T14:13:10.991Z,69.76
2022-11-14T14:16:27.415Z,69.75
2022-11-14T14:20:13.612Z,70.24
2022-11-14T14:23:31.796Z,70.32
2022-11-14T14:27:12.208Z,70.44
2022-11-14T14:30:18.659Z,70.43
2022-11-14T14:33:22.368Z,70.38
2022-11-14T14:36:28.694Z,70.44
2022-11-14T14:39:31.504Z,70.58
2022-11-14T14:42:46.092Z,70.69
2022-11-14T14:45:53.235Z,70.84
2022-11-14T14:48:58.199Z,70.76
2022-11-14T14:52:01.166Z,70.75
2022-11-14T14:55:08.772Z,71.09
2022-11-14T14:58:22.741Z,71.36
2022-11-14T15:01:35.739Z,71.27
2022-11-14T15:04:40.376Z,71.23
2022-11-14T15:07:43.379Z,71.35
2022-11-14T15:10:46.430Z,71.62
2022-11-14T15:13:54.569Z,71.72
2022-11-14T15:16:59.508Z,71.65
2022-11-14T15:20:02.987Z,71.68
2022-11-14T15:23:20.685Z,71.94
2022-11-14T15:26:23.753Z,71.77
2022-11-14T15:29:28.003Z,72.06
2022-11-14T15:32:30.896Z,72.21
2022-11-14T15:35:39.059Z,72.16
2022-11-14T15:39:02.333Z,72.26
2022-11-14T15:42:23.521Z,72.36
2022-11-14T15:45:48.516Z,72.52
2022-11-14T15:48:51.823Z,72.67
2022-11-14T15:51:58.278Z,72.63
2022-11-14T15:55:01.444Z,72.98
2022-11-14T15:58:27.106Z,73.02
2022-11-14T16:01:28.220Z,73.00
2022-11-14T16:04:34.164Z,73.34
2022-11-14T16:07:37.075Z,73.43
2022-11-14T16:10:40.197Z,73.47
2022-11-14T16:13:43.507Z,73.58
2022-11-14T16:16:47.325Z,73.84
2022-11-14T16:19:51.809Z,74.01
2022-11-14T16:22:56.801Z,74.08
2022-11-14T16:25:59.744Z,74.41
2022-11-14T16:29:02.674Z,74.39
2022-11-14T16:32:05.562Z,74.16
2022-11-14T16:35:13.870Z,74.24
2022-11-14T16:38:18.443Z,74.55
2022-11-14T16:41:21.630Z,74.61
2022-11-14T16:44:25.106Z,74.72
2022-11-14T16:47:28.687Z,74.70
2022-11-14T16:51:47.913Z,74.82
2022-11-14T16:56:14.218Z,74.60
2022-11-14T16:59:59.767Z,74.36
2022-11-14T17:03:20.606Z,74.23
2022-11-14T17:06:23.559Z,74.35
2022-11-14T17:09:52.144Z,74.50
2022-11-14T17:12:58.368Z,74.58
2022-11-14T17:16:05.043Z,74.46
2022-11-14T17:19:10.273Z,74.68
2022-11-14T17:22:14.343Z,74.62
2022-11-14T17:25:17.227Z,74.78
2022-11-14T17:28:20.185Z,74.66
2022-11-14T17:31:23.043Z,74.52
2022-11-14T17:34:26.134Z,74.57
2022-11-14T17:37:29.250Z,74.76
2022-11-14T17:40:32.038Z,74.86
2022-11-14T17:43:39.534Z,74.73
2022-11-14T17:46:43.228Z,74.77
2022-11-14T17:49:46.348Z,74.72
2022-11-14T17:52:49.337Z,74.66
2022-11-14T17:55:57.370Z,74.83
2022-11-14T17:59:02.250Z,74.70
2022-11-14T18:02:05.183Z,74.62
2022-11-14T18:05:08.214Z,74.67
2022-11-14T18:08:11.232Z,74.75
2022-11-14T18:11:40.841Z,74.91
2022-11-14T18:14:45.939Z,74.94
2022-11-14T18:17:48.963Z,74.82
2022-11-14T18:20:51.789Z,74.88
2022-11-14T18:23:59.693Z,74.91
2022-11-14T18:27:02.695Z,75.00
2022-11-14T18:30:26.807Z,74.88
2022-11-14T18:33:29.737Z,74.83
2022-11-14T18:36:33.094Z,74.87
2022-11-14T18:39:36.333Z,75.04
2022-11-14T18:42:39.344Z,75.14
2022-11-14T18:45:42.284Z,75.06
2022-11-14T18:48:47.507Z,74.99
2022-11-14T18:51:51.513Z,74.99
2022-11-14T18:54:55.368Z,75.37
2022-11-14T18:57:58.385Z,75.29
2022-11-14T19:01:09.540Z,75.48
2022-11-14T19:04:13.280Z,75.41
2022-11-14T19:07:16.263Z,75.24
2022-11-14T19:10:19.148Z,75.36
2022-11-14T19:13:24.297Z,75.49
2022-11-14T19:16:27.496Z,75.51
2022-11-14T19:19:30.806Z,75.55
2022-11-14T19:22:37.782Z,75.48
2022-11-14T19:25:40.765Z,75.62
2022-11-14T19:28:48.601Z,75.53
2022-11-14T19:31:55.580Z,75.60
2022-11-14T19:35:02.855Z,75.68
2022-11-14T19:38:10.881Z,75.58
2022-11-14T19:41:16.637Z,75.73
2022-11-14T19:44:22.068Z,75.84
2022-11-14T19:47:26.217Z,75.98
2022-11-14T19:50:46.379Z,75.78
2022-11-14T19:54:05.237Z,75.70
2022-11-14T19:57:18.743Z,76.02
2022-11-14T20:04:03.287Z,75.85
2022-11-14T20:07:15.167Z,75.96
2022-11-14T20:10:23.312Z,75.93
2022-11-14T20:13:30.166Z,75.88
2022-11-14T20:16:35.500Z,76.01
2022-11-14T20:19:38.449Z,75.99
2022-11-14T20:22:41.497Z,76.01
2022-11-14T20:25:50.585Z,76.01
2022-11-14T20:28:58.494Z,75.98
2022-11-14T20:32:06.251Z,76.40
2022-11-14T20:35:09.385Z,76.36
2022-11-14T20:38:12.392Z,76.38
2022-11-14T20:41:16.121Z,76.32
2022-11-14T20:44:21.176Z,76.52
2022-11-14T20:47:24.567Z,76.51
2022-11-14T20:50:27.498Z,76.62
2022-11-14T20:53:32.298Z,76.52
2022-11-14T20:56:39.786Z,76.47
2022-11-14T20:59:42.893Z,76.55
2022-11-14T21:02:47.884Z,76.75
2022-11-14T21:05:52.173Z,76.84
2022-11-14T21:08:55.179Z,76.62
2022-11-14T21:11:58.071Z,76.74
2022-11-14T21:15:01.154Z,76.96
2022-11-14T21:18:07.517Z,76.89
2022-11-14T21:21:19.349Z,76.86
2022-11-14T21:24:24.988Z,76.85
2022-11-14T21:27:41.431Z,76.89
2022-11-14T21:30:44.633Z,76.92
2022-11-14T21:33:51.778Z,76.81
2022-11-14T21:36:55.399Z,76.86
2022-11-14T21:40:00.315Z,76.70
2022-11-14T21:43:15.065Z,76.93
2022-11-14T21:46:21.489Z,76.93
2022-11-14T21:49:25.168Z,76.96
2022-11-14T21:52:30.023Z,76.80
2022-11-14T21:55:33.934Z,76.88
2022-11-14T21:58:36.967Z,76.79
2022-11-14T22:02:10.100Z,76.84
2022-11-14T22:05:13.070Z,76.92
2022-11-14T22:08:16.038Z,76.79
2022-11-14T22:11:19.121Z,76.92
2022-11-14T22:14:22.154Z,76.92
2022-11-14T22:17:25.091Z,76.96
2022-11-14T22:20:28.653Z,76.98
2022-11-14T22:23:31.866Z,76.87
2022-11-14T22:26:39.871Z,76.85
2022-11-14T22:29:42.999Z,77.08
2022-11-14T22:32:45.899Z,76.92
2022-11-14T22:35:48.824Z,77.14
2022-11-14T22:38:53.611Z,77.03
2022-11-14T22:41:56.535Z,76.92
2022-11-14T22:44:59.656Z,76.88
2022-11-14T22:48:03.377Z,77.02
2022-11-14T22:51:08.077Z,76.95
2022-11-14T22:54:11.024Z,76.81
2022-11-14T22:57:13.929Z,76.76
2022-11-14T23:00:17.760Z,76.60
2022-11-14T23:03:21.817Z,76.72
2022-11-14T23:06:25.554Z,76.69
2022-11-14T23:09:30.044Z,76.79
2022-11-14T23:12:32.955Z,76.87
2022-11-14T23:15:36.773Z,76.71
2022-11-14T23:18:40.496Z,76.71
2022-11-14T23:21:43.365Z,76.70
2022-11-14T23:24:46.184Z,76.72
2022-11-14T23:27:49.024Z,76.84
2022-11-14T23:30:51.851Z,76.81
2022-11-14T23:33:58.469Z,77.06
2022-11-14T23:37:01.317Z,77.02
2022-11-14T23:40:04.682Z,76.91
2022-11-14T23:43:07.624Z,77.05
2022-11-14T23:46:10.697Z,76.95
2022-11-14T23:49:14.232Z,77.02
2022-11-14T23:52:17.097Z,76.98
2022-11-14T23:55:19.954Z,77.00
2022-11-14T23:58:24.415Z,76.93
